BSL weather

EuroAirport Basel-Mulhouse-Freiburg Airport
Bâle/Mulhouse, Alsace, France

Public forecast

Using degrees Celsius for public forecast. Weather courtesy of forecast.io.

Current aviation weather report (METAR) for EuroAirport Basel-Mulhouse-Freiburg Airport

Retrieved 2019/10/22 12:30 UTC (0 seconds ago):

LFSB 221230Z 33004KT 300V360 8000 BKN005 13/13 Q1023 NOSIG

Aviation forecast (TAF) for EuroAirport Basel-Mulhouse-Freiburg Airport

Retrieved 2019/10/22 12:42 UTC (0 seconds ago):

TAF LFSB 221100Z 2212/2312 34007KT 5000 BR BKN004 TEMPO 2212/2217 7000 NSW BKN008 BECMG 2217/2220 2000 BCFG TEMPO 2221/2306 0400 FG VV/// BECMG 2306/2309 7000 NSW BKN008